Data for 04/07/2009

Time Sea-Level Adjusted Pressure Absolute Pressure Temperature Relative Humidity Dew Point   
(mb) (inHg) (mb) (inHg) (C) (F) (%) (C) (F)
00:05 1020 30.12 849 25.07 3.3 37.9 47 -7 19.4
00:10 1019 30.09 849 25.07 2.8 37 47 -7.5 18.5
00:15 1019 30.09 849 25.07 2.8 37 50 -6.6 20.1
00:20 1019 30.09 849 25.07 2.3 36.1 54 -6.1 20.9
00:25 1019 30.09 849 25.07 2.3 36.1 54 -6.1 21
00:30 1019 30.09 849 25.07 2.1 35.8 50 -7.4 18.7
00:35 1019 30.09 849 25.07 2.2 36 54 -6.1 20.9
00:40 1019 30.09 849 25.07 2.6 36.7 51 -6.5 20.2
00:45 1020 30.12 849 25.07 2.8 37 51 -6.4 20.5
00:50 1020 30.12 849 25.07 2 35.5 53 -6.7 19.9
00:55 1020 30.12 849 25.07 2 35.7 48 -7.8 18
01:00 1020 30.12 849 25.07 2.2 35.9 48 -7.7 18.1
01:05 1020 30.12 849 25.07 2.3 36.2 47 -7.8 18
01:10 1020 30.12 849 25.07 2.5 36.6 44 -8.6 16.5
01:15 1020 30.12 849 25.07 3.4 38.2 42 -8.4 16.9
01:20 1020 30.12 849 25.07 3.7 38.6 43 -7.8 17.9
01:25 1020 30.12 849 25.07 3.5 38.3 42 -8.1 17.4
01:30 1020 30.12 849 25.07 3.4 38.1 46 -7.1 19.3
01:35 1020 30.12 849 25.07 2.7 36.9 44 -8.2 17.2
01:40 1020 30.12 849 25.07 3.4 38.2 41 -8.5 16.8
01:45 1020 30.12 849 25.07 3.8 38.8 42 -8 17.7
01:50 1020 30.12 849 25.07 3.7 38.6 42 -8.1 17.4
01:55 1020 30.12 849 25.07 3.4 38.1 45 -7.5 18.4
02:00 1020 30.12 849 25.07 3.1 37.6 43 -8.2 17.2
02:05 1020 30.12 849 25.07 3.5 38.3 43 -8.1 17.5
02:10 1020 30.12 849 25.07 3.3 38 43 -8 17.7
02:15 1020 30.12 849 25.07 3.4 38.1 45 -7.4 18.7
02:20 1020 30.12 849 25.07 2.8 37 45 -7.9 17.8
02:25 1020 30.12 849 25.07 2.8 37 47 -7.3 18.8
02:30 1020 30.12 850 25.1 2.9 37.3 46 -7.6 18.3
02:35 1020 30.12 850 25.1 3.3 38 43 -8.1 17.5
02:40 1020 30.12 850 25.1 3.6 38.5 44 -7.5 18.4
02:45 1020 30.12 850 25.1 3.3 37.9 47 -7 19.4
02:50 1021 30.15 850 25.1 3 37.4 46 -7.6 18.4
02:55 1021 30.15 850 25.1 3.2 37.8 45 -7.7 18.2
03:00 1021 30.15 850 25.1 3.4 38 45 -7.5 18.4
03:05 1021 30.15 850 25.1 3.4 38 42 -8.4 16.9
03:10 1021 30.15 850 25.1 3.8 38.8 44 -7.4 18.7
03:15 1021 30.15 850 25.1 3.6 38.5 44 -7.4 18.6
03:20 1021 30.15 850 25.1 3.5 38.3 46 -7.1 19.2
03:25 1021 30.15 850 25.1 3.1 37.6 47 -7 19.4
03:30 1021 30.15 850 25.1 3 37.4 47 -7.3 18.8
03:35 1021 30.15 850 25.1 3 37.4 48 -7.1 19.3
03:40 1021 30.15 850 25.1 2.6 36.8 48 -7.3 18.9
03:45 1021 30.15 850 25.1 2.7 36.9 49 -7 19.4
03:50 1021 30.15 850 25.1 2.3 36.2 51 -6.9 19.6
03:55 1021 30.15 850 25.1 2.3 36.1 50 -7 19.4
04:00 1020 30.12 850 25.1 2.1 35.8 52 -6.8 19.8
04:05 1020 30.12 850 25.1 2 35.6 54 -6.4 20.5
04:10 1020 30.12 850 25.1 2.2 36 47 -8 17.7
04:15 1020 30.12 850 25.1 3.1 37.6 48 -7 19.4
04:20 1020 30.12 850 25.1 2.6 36.6 47 -7.7 18.1
04:25 1020 30.12 850 25.1 2.9 37.2 46 -7.6 18.3
04:30 1020 30.12 850 25.1 2.8 37.1 48 -7.2 19
04:35 1020 30.12 850 25.1 2.4 36.4 49 -7.2 19.1
04:40 1020 30.12 850 25.1 2.1 35.9 49 -7.4 18.6
04:45 1020 30.12 849 25.07 2.1 35.8 50 -7.4 18.8
04:50 1020 30.12 849 25.07 2.1 35.8 50 -7.2 19.1
04:55 1020 30.12 849 25.07 1.7 35 52 -7.2 19.1
05:00 1020 30.12 849 25.07 1.5 34.8 52 -7.4 18.7
05:05 1020 30.12 849 25.07 1.2 34.2 52 -7.4 18.6
05:10 1020 30.12 849 25.07 1.3 34.3 51 -7.7 18.2
05:15 1020 30.12 849 25.07 1.3 34.3 51 -7.7 18.2
05:20 1020 30.12 849 25.07 1.3 34.3 52 -7.6 18.3
05:25 1020 30.12 849 25.07 1 33.8 53 -7.5 18.5
05:30 1020 30.12 849 25.07 0.5 32.9 56 -7.2 19
05:35 1020 30.12 849 25.07 0.3 32.5 56 -7.5 18.5
05:40 1020 30.12 849 25.07 0.2 32.4 57 -7.4 18.7
05:45 1020 30.12 849 25.07 0 32 58 -7.4 18.8
05:50 1020 30.12 849 25.07 -0.2 31.7 58 -7.4 18.7
05:55 1020 30.12 849 25.07 -0.2 31.6 58 -7.6 18.3
06:00 1020 30.12 849 25.07 0.1 32.1 57 -7.5 18.4
06:05 1020 30.12 849 25.07 -0.1 31.9 58 -7.4 18.8
06:10 1020 30.12 849 25.07 -0.2 31.7 58 -7.4 18.7
06:15 1020 30.12 849 25.07 -0.4 31.3 59 -7.5 18.5
06:20 1020 30.12 849 25.07 -0.5 31.2 58 -7.6 18.3
06:25 1020 30.12 849 25.07 -0.1 31.9 56 -7.9 17.8
06:30 1020 30.12 849 25.07 0.5 33 54 -7.7 18.1
06:35 1020 30.12 849 25.07 0 32 57 -7.5 18.6
06:40 1020 30.12 849 25.07 -0.2 31.6 57 -7.8 18
06:45 1020 30.12 849 25.07 -0 32 56 -7.8 18
06:50 1020 30.12 849 25.07 0.1 32.2 56 -7.6 18.3
06:55 1020 30.12 849 25.07 0.1 32.1 57 -7.5 18.4
07:00 1020 30.12 849 25.07 -0.3 31.5 56 -8 17.6
07:05 1020 30.12 849 25.07 -0 32 56 -7.8 18
07:10 1020 30.12 849 25.07 0 32.1 55 -7.9 17.9
07:15 1020 30.12 849 25.07 0.2 32.4 55 -7.8 18
07:20 1020 30.12 849 25.07 0.3 32.5 55 -7.8 18
07:25 1020 30.12 849 25.07 -0 31.9 57 -7.5 18.5
07:30 1020 30.12 849 25.07 -0.4 31.3 58 -7.7 18.2
07:35 1020 30.12 849 25.07 -0.5 31.1 58 -7.7 18.2
07:40 1020 30.12 849 25.07 -0.4 31.3 57 -7.9 17.7
07:45 1020 30.12 849 25.07 0.1 32.1 55 -7.9 17.8
07:50 1020 30.12 849 25.07 0.4 32.8 53 -8 17.6
07:55 1020 30.12 849 25.07 0.8 33.4 53 -7.8 17.9
08:00 1020 30.12 849 25.07 1.1 34 53 -7.5 18.5
08:05 1020 30.12 849 25.07 1.4 34.5 52 -7.5 18.4
08:10 1020 30.12 849 25.07 1.7 35.1 50 -7.7 18.1
08:15 1020 30.12 849 25.07 1.9 35.4 49 -7.7 18.1
08:20 1020 30.12 849 25.07 2.4 36.3 48 -7.5 18.5
08:25 1020 30.12 849 25.07 2.9 37.2 47 -7.3 18.9
08:30 1020 30.12 849 25.07 2.4 36.4 49 -7.3 18.8
08:35 1020 30.12 849 25.07 2.5 36.5 48 -7.6 18.4
08:40 1020 30.12 849 25.07 3 37.5 45 -7.8 18
08:45 1020 30.12 849 25.07 3.8 38.8 42 -8 17.6
08:50 1020 30.12 849 25.07 4.1 39.4 42 -7.7 18.2
08:55 1020 30.12 849 25.07 4.3 39.7 41 -8 17.6
09:00 1020 30.12 849 25.07 4.9 40.9 40 -7.5 18.5
09:05 1020 30.12 849 25.07 5.7 42.3 36 -8.1 17.4
09:10 1020 30.12 849 25.07 6.3 43.4 35 -8.1 17.4
09:15 1020 30.12 849 25.07 6.5 43.7 34 -8.1 17.4
09:20 1020 30.12 849 25.07 6.9 44.5 34 -7.8 17.9
09:25 1020 30.12 849 25.07 7.5 45.5 34 -7.5 18.5
09:30 1020 30.12 849 25.07 7.5 45.5 34 -7.3 18.8
09:35 1020 30.12 849 25.07 7.8 46 32 -8 17.6
09:40 1020 30.12 849 25.07 8.3 47 30 -8.3 17.1
09:45 1020 30.12 849 25.07 8.6 47.5 30 -8 17.6
09:50 1020 30.12 849 25.07 8.8 47.8 31 -7.3 18.9
09:55 1020 30.12 849 25.07 8.8 47.8 32 -7 19.4
10:00 1020 30.12 849 25.07 8.7 47.6 32 -7.2 19
10:05 1020 30.12 849 25.07 9.3 48.7 30 -7.3 18.8
10:10 1020 30.12 849 25.07 8.6 47.4 32 -7.1 19.2
10:15 1020 30.12 849 25.07 8.3 46.9 32 -7.5 18.5
10:20 1020 30.12 849 25.07 8.5 47.2 32 -7.4 18.7
10:25 1020 30.12 849 25.07 9 48.2 31 -7.1 19.2
10:30 1020 30.12 849 25.07 8.9 48 31 -7.5 18.6
10:35 1020 30.12 849 25.07 9.6 49.4 30 -6.9 19.6
10:40 1020 30.12 849 25.07 10.8 51.5 28 -6.8 19.8
10:45 1020 30.12 849 25.07 11.5 52.6 27 -6.7 20
10:50 1020 30.12 849 25.07 11.6 52.9 29 -5.7 21.7
10:55 1020 30.12 849 25.07 9.7 49.4 33 -5.8 21.5
11:00 1020 30.12 849 25.07 9.9 49.7 30 -7 19.4
11:05 1020 30.12 849 25.07 9.7 49.5 30 -6.9 19.6
11:10 1020 30.12 849 25.07 9.4 49 32 -6.6 20.1
11:15 1020 30.12 849 25.07 8.8 47.9 32 -6.8 19.7
11:20 1020 30.12 849 25.07 9.7 49.4 30 -7.1 19.2
11:25 1020 30.12 849 25.07 9.8 49.7 32 -5.9 21.4
11:30 1020 30.12 849 25.07 9.9 49.8 32 -5.9 21.4
11:35 1019 30.09 849 25.07 9.5 49.2 33 -6 21.2
11:40 1019 30.09 849 25.07 9.4 48.9 33 -6 21.2
11:45 1019 30.09 849 25.07 9.1 48.3 32 -6.6 20.1
11:50 1019 30.09 849 25.07 9.7 49.4 33 -5.9 21.3
11:55 1019 30.09 848 25.04 10 49.9 30 -6.6 20.2
12:00 1019 30.09 848 25.04 9.9 49.9 31 -6.3 20.7
12:05 1019 30.09 848 25.04 9.9 49.7 30 -6.8 19.8
12:10 1019 30.09 848 25.04 10.6 51.2 30 -6.3 20.7
12:15 1019 30.09 848 25.04 10.4 50.8 30 -6.4 20.5
12:20 1019 30.09 848 25.04 10.7 51.3 29 -6.7 20
12:25 1019 30.09 848 25.04 10.6 51.1 30 -6.2 20.8
12:30 1019 30.09 848 25.04 11 51.7 29 -6.6 20.2
12:35 1019 30.09 848 25.04 11 51.8 28 -6.6 20.1
12:40 1019 30.09 848 25.04 11.1 51.9 29 -6.1 21
12:45 1019 30.09 848 25.04 11.5 52.8 27 -6.9 19.7
12:50 1019 30.09 848 25.04 12 53.6 27 -6.4 20.4
12:55 1019 30.09 848 25.04 11.7 53 29 -5.9 21.4
13:00 1018 30.06 848 25.04 11.3 52.3 29 -6 21.2
13:05 1018 30.06 848 25.04 11.7 53.1 28 -6.4 20.5
13:10 1018 30.06 848 25.04 11.8 53.3 27 -6.5 20.3
13:15 1018 30.06 847 25.01 11.9 53.5 28 -5.9 21.4
13:20 1018 30.06 847 25.01 12.2 54 28 -5.7 21.8
13:25 1018 30.06 847 25.01 11.5 52.8 29 -6 21.2
13:30 1018 30.06 847 25.01 12.3 54.2 28 -5.8 21.5
13:35 1018 30.06 847 25.01 13 55.3 26 -6.1 21.1
13:40 1018 30.06 847 25.01 13.7 56.6 26 -5.2 22.6
13:45 1018 30.06 847 25.01 12.6 54.8 27 -5.7 21.8
13:50 1018 30.06 847 25.01 13.5 56.2 26 -5.7 21.8
13:55 1018 30.06 847 25.01 14.8 58.7 20 -7.7 18.1
14:00 1018 30.06 847 25.01 14.7 58.4 23 -6.3 20.7
14:05 1018 30.06 847 25.01 13.8 56.8 27 -5 23
14:10 1018 30.06 847 25.01 13.6 56.4 25 -5.9 21.5
14:15 1018 30.06 847 25.01 13.9 57 24 -6.5 20.2
14:20 1018 30.06 847 25.01 14.1 57.3 24 -6.3 20.7
14:25 1018 30.06 847 25.01 14.7 58.4 23 -6.4 20.5
14:30 1017 30.03 847 25.01 14.9 58.9 24 -5.4 22.2
14:35 1017 30.03 847 25.01 14.3 57.7 27 -4.3 24.3
14:40 1017 30.03 846 24.98 15.5 59.9 21 -6.5 20.3
14:45 1017 30.03 846 24.98 14.7 58.4 25 -5.3 22.5
14:50 1017 30.03 846 24.98 14.3 57.7 26 -5.1 22.8
14:55 1017 30.03 846 24.98 14.7 58.5 25 -4.9 23.1
15:00 1017 30.03 846 24.98 14.5 58 25 -5.5 22.2
15:05 1017 30.03 846 24.98 14.7 58.5 24 -5.4 22.3
15:10 1017 30.03 846 24.98 15.1 59.2 23 -5.7 21.8
15:15 1017 30.03 846 24.98 14.6 58.3 25 -5.2 22.7
15:20 1017 30.03 846 24.98 14.5 58 23 -6.2 20.8
15:25 1017 30.03 846 24.98 14.5 58.2 24 -5.7 21.8
15:30 1017 30.03 846 24.98 14.6 58.3 24 -5.5 22.1
15:35 1017 30.03 846 24.98 14.5 58.2 25 -5.3 22.5
15:40 1016 30 846 24.98 14.8 58.6 24 -5.6 22
15:45 1016 30 846 24.98 15 58.9 24 -5.5 22.2
15:50 1016 30 846 24.98 14.6 58.3 23 -6 21.2
15:55 1016 30 845 24.95 14.6 58.3 23 -6 21.2
16:00 1016 30 845 24.95 14.8 58.7 23 -5.8 21.5
16:05 1016 30 845 24.95 14.4 58 24 -5.9 21.4
16:10 1016 30 845 24.95 14.6 58.3 23 -6.2 20.9
16:15 1016 30 845 24.95 15.5 59.9 23 -5.3 22.5
16:20 1016 30 845 24.95 15.6 60 23 -5.2 22.6
16:25 1016 30 845 24.95 15 59 24 -5.5 22.2
16:30 1016 30 845 24.95 14.8 58.7 24 -5.4 22.2
16:35 1016 30 845 24.95 14.9 58.8 25 -4.7 23.5
16:40 1016 30 845 24.95 15.5 59.8 23 -5.3 22.4
16:45 1016 30 845 24.95 16.3 61.4 24 -4.1 24.7
16:50 1015 29.97 845 24.95 16.5 61.6 18 -8.1 17.4
16:55 1015 29.97 845 24.95 16.6 61.9 25 -3.6 25.6
17:00 1015 29.97 845 24.95 15.6 60.1 24 -4.8 23.3
17:05 1015 29.97 844 24.92 15.5 59.9 23 -5.3 22.5
17:10 1015 29.97 844 24.92 16.2 61.2 24 -4.3 24.3
17:15 1015 29.97 844 24.92 15.7 60.3 23 -5.2 22.6
17:20 1015 29.97 844 24.92 16.1 60.9 23 -5.2 22.7
17:25 1015 29.97 844 24.92 15.8 60.4 21 -6.4 20.5
17:30 1015 29.97 844 24.92 15.8 60.4 20 -6.9 19.7
17:35 1015 29.97 844 24.92 16.3 61.3 20 -6.6 20
17:40 1015 29.97 844 24.92 16.5 61.7 21 -5.6 21.9
17:45 1015 29.97 844 24.92 15.7 60.2 22 -6 21.2
17:50 1015 29.97 844 24.92 15.4 59.7 21 -7 19.4
17:55 1015 29.97 844 24.92 16 60.7 23 -4.8 23.4
18:00 1015 29.97 844 24.92 15.9 60.7 21 -6.1 21
18:05 1015 29.97 844 24.92 16 60.8 22 -5.8 21.6
18:10 1014 29.94 844 24.92 15.7 60.3 21 -6.7 19.9
18:15 1014 29.94 844 24.92 15.6 60 21 -6.4 20.5
18:20 1014 29.94 844 24.92 15.4 59.7 21 -6.8 19.8
18:25 1014 29.94 844 24.92 14.7 58.5 22 -6.6 20.1
18:30 1014 29.94 843 24.89 14.6 58.2 22 -6.7 20
18:35 1014 29.94 843 24.89 14.3 57.8 23 -6.6 20.1
18:40 1014 29.94 843 24.89 14.4 58 22 -6.8 19.7
18:45 1014 29.94 843 24.89 14.5 58.1 23 -6.6 20.1
18:50 1014 29.94 843 24.89 14.7 58.4 21 -7.2 19
18:55 1014 29.94 843 24.89 14.6 58.3 21 -7.2 19.1
19:00 1014 29.94 843 24.89 14.4 57.9 22 -7.1 19.3
19:05 1014 29.94 843 24.89 14.3 57.8 22 -7.2 19.1
19:10 1014 29.94 843 24.89 14.3 57.7 22 -7 19.4
19:15 1014 29.94 843 24.89 14.3 57.7 23 -6.6 20.1
19:20 1014 29.94 843 24.89 14.2 57.5 22 -7.1 19.1
19:25 1014 29.94 843 24.89 14.2 57.5 24 -6.3 20.7
19:30 1014 29.94 843 24.89 13.9 56.9 24 -6.4 20.6
19:35 1014 29.94 843 24.89 13.6 56.5 26 -5.6 21.9
19:40 1014 29.94 843 24.89 13.3 55.9 27 -5.5 22.2
19:45 1013 29.91 843 24.89 12.8 55.1 27 -5.8 21.5
19:50 1013 29.91 843 24.89 12.6 54.6 30 -4.7 23.6
19:55 1013 29.91 843 24.89 11.6 52.9 32 -4.3 24.3
20:00 1013 29.91 843 24.89 10.6 51.1 33 -5 22.9
20:05 1013 29.91 843 24.89 10.2 50.3 33 -5.3 22.4
20:10 1013 29.91 843 24.89 10 50 33 -5.6 22
20:15 1013 29.91 842 24.86 9.7 49.5 34 -5.3 22.4
20:20 1013 29.91 842 24.86 9.1 48.5 36 -5.1 22.8
20:25 1013 29.91 842 24.86 8.6 47.5 37 -5.4 22.3
20:30 1013 29.91 842 24.86 8.4 47.1 38 -4.9 23.1
20:35 1013 29.91 842 24.86 8.1 46.6 40 -4.6 23.6
20:40 1013 29.91 842 24.86 8 46.4 40 -4.8 23.3
20:45 1013 29.91 843 24.89 8 46.4 35 -6.4 20.4
20:50 1013 29.91 843 24.89 8.9 48.1 35 -5.7 21.7
20:55 1013 29.91 843 24.89 8.6 47.4 33 -6.8 19.7
21:00 1013 29.91 842 24.86 8.5 47.3 35 -5.9 21.4
21:05 1013 29.91 842 24.86 8.1 46.6 37 -5.7 21.7
21:10 1013 29.91 842 24.86 7.7 45.8 39 -5.2 22.6
21:15 1013 29.91 842 24.86 7.2 44.9 41 -5.2 22.6
21:20 1013 29.91 842 24.86 6.9 44.5 42 -5.2 22.7
21:25 1013 29.91 842 24.86 6.9 44.5 42 -5.1 22.8
21:30 1013 29.91 842 24.86 6.7 44 43 -5.1 22.8
21:35 1013 29.91 842 24.86 6.5 43.7 43 -5.2 22.7
21:40 1013 29.91 842 24.86 6.5 43.8 42 -5.4 22.2
21:45 1013 29.91 842 24.86 6.6 43.9 42 -5.5 22.1
21:50 1013 29.91 842 24.86 6.7 44 41 -5.8 21.6
21:55 1013 29.91 842 24.86 6.8 44.2 40 -5.8 21.6
22:00 1013 29.91 842 24.86 6.7 44.1 40 -5.8 21.6
22:05 1013 29.91 842 24.86 6.7 44.1 41 -5.7 21.7
22:10 1013 29.91 842 24.86 6.7 44.1 40 -6 21.3
22:15 1013 29.91 842 24.86 6.9 44.4 38 -6.3 20.7
22:20 1013 29.91 842 24.86 7.1 44.7 39 -6.1 21.1
22:25 1013 29.91 842 24.86 6.9 44.5 39 -6 21.3
22:30 1013 29.91 842 24.86 6.9 44.4 39 -6.1 21
22:35 1013 29.91 842 24.86 6.9 44.4 40 -5.9 21.3
22:40 1013 29.91 842 24.86 6.7 44.1 40 -6 21.2
22:45 1013 29.91 842 24.86 6.6 44 40 -6 21.3
22:50 1013 29.91 842 24.86 6.6 43.8 39 -6.3 20.6
22:55 1013 29.91 842 24.86 7 44.6 36 -7.1 19.2
23:00 1012 29.88 842 24.86 7.5 45.5 33 -7.6 18.3
23:05 1012 29.88 842 24.86 7.6 45.7 36 -6.4 20.5
23:10 1012 29.88 842 24.86 6.8 44.3 40 -5.9 21.3
23:15 1012 29.88 842 24.86 6.4 43.5 41 -6.1 21.1
23:20 1012 29.88 842 24.86 6.5 43.7 39 -6.4 20.4
23:25 1012 29.88 842 24.86 6.7 44 37 -7.2 19.1
23:30 1012 29.88 842 24.86 6.9 44.5 37 -6.9 19.5
23:35 1012 29.88 842 24.86 7 44.7 36 -6.9 19.6
23:40 1012 29.88 841 24.83 7 44.7 36 -7.1 19.2
23:45 1012 29.88 841 24.83 7 44.7 36 -7.1 19.2
23:50 1012 29.88 841 24.83 7 44.6 36 -7.2 19.1
23:55 1012 29.88 841 24.83 6.9 44.5 36 -6.9 19.5
24:00 1012 29.88 841 24.83 6.7 44 36 -7.2 19